Weather at Sportski Aerodrom "Kozhirsko Polje"

Public forecast

Using degrees Celsius for public forecast. Weather courtesy of forecast.io.

Closest aviation weather report (METAR) to Sportski Aerodrom "Kozhirsko Polje"

Closest report is Nis Airport, 26.3 nm (48.8 km) ESE. Retrieved 2022/06/29 21:00 UTC (15 minutes ago):

LYNI 292100Z 09010KT CAVOK 26/12 Q1012 NOSIG

Closest aviation forecast (TAF) to Sportski Aerodrom "Kozhirsko Polje"

Closest forecast is Nis Airport, 26.3 nm (48.8 km) ESE. Retrieved 2022/06/29 18:26 UTC (3 hours ago):

TAF LYNI 291700Z 2918/3018 11009KT CAVOK TX34/3014Z TN19/3003Z